createdAt,value
2023-05-10T00:02:55.305Z,45.72
2023-05-10T00:05:59.368Z,45.26
2023-05-10T00:09:04.632Z,45.48
2023-05-10T00:12:08.609Z,46.16
2023-05-10T00:15:12.621Z,45.98
2023-05-10T00:18:16.540Z,45.81
2023-05-10T00:21:20.326Z,45.81
2023-05-10T00:24:26.207Z,46.57
2023-05-10T00:27:29.781Z,45.79
2023-05-10T00:30:33.469Z,46.88
2023-05-10T00:33:38.912Z,46.82
2023-05-10T00:36:42.799Z,46.43
2023-05-10T00:39:47.731Z,47.41
2023-05-10T00:42:51.552Z,46.70
2023-05-10T00:45:55.825Z,46.99
2023-05-10T00:49:00.130Z,47.56
2023-05-10T00:52:04.137Z,47.46
2023-05-10T00:55:13.694Z,47.51
2023-05-10T00:58:18.417Z,47.37
2023-05-10T01:01:22.278Z,47.54
2023-05-10T01:04:26.663Z,48.06
2023-05-10T01:07:30.705Z,48.40
2023-05-10T01:10:35.541Z,47.71
2023-05-10T01:13:43.764Z,48.66
2023-05-10T01:16:50.964Z,48.57
2023-05-10T01:19:54.998Z,48.57
2023-05-10T01:23:33.085Z,50.72
2023-05-10T01:27:27.449Z,49.77
2023-05-10T01:31:04.698Z,49.39
2023-05-10T01:34:18.702Z,48.88
2023-05-10T01:37:31.348Z,48.78
2023-05-10T01:40:42.809Z,48.96
2023-05-10T01:44:01.672Z,49.32
2023-05-10T01:47:13.584Z,49.71
2023-05-10T01:50:32.715Z,49.55
2023-05-10T01:53:41.186Z,49.46
2023-05-10T01:56:49.902Z,50.36
2023-05-10T01:59:55.487Z,49.73
2023-05-10T02:03:02.373Z,50.15
2023-05-10T02:06:09.950Z,50.57
2023-05-10T02:09:16.400Z,49.58
2023-05-10T02:12:22.265Z,50.72
2023-05-10T02:15:29.532Z,50.15
2023-05-10T02:18:36.923Z,51.24
2023-05-10T02:21:43.550Z,51.03
2023-05-10T02:24:50.679Z,50.25
2023-05-10T02:27:58.544Z,51.60
2023-05-10T02:31:03.198Z,51.23
2023-05-10T02:34:10.605Z,51.69
2023-05-10T02:37:19.395Z,50.91
2023-05-10T02:40:28.567Z,51.14
2023-05-10T02:43:37.309Z,51.44
2023-05-10T02:46:40.970Z,51.72
2023-05-10T02:49:45.675Z,52.33
2023-05-10T02:52:56.334Z,51.62
2023-05-10T02:56:08.166Z,51.49
2023-05-10T02:59:12.136Z,51.81
2023-05-10T03:02:17.033Z,52.00
2023-05-10T03:05:21.249Z,51.55
2023-05-10T03:08:27.273Z,52.61
2023-05-10T03:11:49.621Z,52.49
2023-05-10T03:15:05.033Z,53.18
2023-05-10T03:18:15.547Z,52.67
2023-05-10T03:21:22.342Z,52.65
2023-05-10T03:24:31.770Z,53.64
2023-05-10T03:27:41.280Z,52.71
2023-05-10T03:30:46.408Z,53.00
2023-05-10T03:33:51.310Z,52.50
2023-05-10T03:37:00.246Z,52.83
2023-05-10T03:40:12.570Z,53.29
2023-05-10T03:43:18.860Z,52.22
2023-05-10T03:46:22.732Z,53.27
2023-05-10T03:49:26.552Z,52.63
2023-05-10T03:52:30.601Z,53.11
2023-05-10T03:55:37.386Z,53.37
2023-05-10T03:58:41.205Z,53.15
2023-05-10T04:01:44.908Z,53.58
2023-05-10T04:04:49.206Z,53.17
2023-05-10T04:07:52.644Z,53.51
2023-05-10T04:11:07.612Z,52.78
2023-05-10T04:14:11.233Z,53.26
2023-05-10T04:17:14.920Z,52.45
2023-05-10T04:20:18.982Z,52.66
2023-05-10T04:23:22.788Z,52.16
2023-05-10T04:26:27.936Z,52.59
2023-05-10T04:29:32.217Z,52.64
2023-05-10T04:32:35.830Z,52.83
2023-05-10T04:35:41.007Z,52.79
2023-05-10T04:38:44.792Z,52.99
2023-05-10T04:41:49.820Z,51.92
2023-05-10T04:44:53.512Z,52.99
2023-05-10T04:47:57.365Z,52.77
2023-05-10T04:51:00.924Z,51.77
2023-05-10T04:54:06.819Z,52.26
2023-05-10T04:57:12.089Z,52.64
2023-05-10T05:00:17.229Z,52.25
2023-05-10T05:03:20.984Z,52.02
2023-05-10T05:06:25.858Z,51.99
2023-05-10T05:09:29.337Z,51.31
2023-05-10T05:12:34.488Z,51.19
2023-05-10T05:15:38.189Z,51.34
2023-05-10T05:18:41.811Z,51.81
2023-05-10T05:21:45.522Z,51.42
2023-05-10T05:24:49.271Z,51.64
2023-05-10T05:27:54.136Z,51.93
2023-05-10T05:30:57.906Z,51.01
2023-05-10T05:34:01.219Z,51.39
2023-05-10T05:37:04.933Z,51.80
2023-05-10T05:40:09.954Z,50.96
2023-05-10T05:43:14.968Z,51.04
2023-05-10T05:46:18.393Z,50.79
2023-05-10T05:49:22.421Z,50.82
2023-05-10T05:52:26.051Z,51.10
2023-05-10T05:55:30.563Z,50.10
2023-05-10T05:58:35.552Z,50.18
2023-05-10T06:01:39.016Z,50.15
2023-05-10T06:04:44.711Z,50.40
2023-05-10T06:07:48.495Z,50.35
2023-05-10T06:10:52.112Z,50.23
2023-05-10T06:13:57.267Z,50.29
2023-05-10T06:17:01.140Z,49.78
2023-05-10T06:20:06.202Z,49.54
2023-05-10T06:23:09.869Z,49.93
2023-05-10T06:26:14.734Z,50.12
2023-05-10T06:29:19.826Z,49.99
2023-05-10T06:32:23.418Z,49.65
2023-05-10T06:35:27.195Z,50.06
2023-05-10T06:38:31.094Z,50.39
2023-05-10T06:41:34.765Z,49.71
2023-05-10T06:44:39.864Z,49.58
2023-05-10T06:47:43.916Z,49.64
2023-05-10T06:50:47.700Z,49.86
2023-05-10T06:53:51.297Z,50.29
2023-05-10T06:56:54.928Z,49.10
2023-05-10T07:00:00.374Z,50.17
2023-05-10T07:03:03.761Z,50.41
2023-05-10T07:06:13.313Z,49.40
2023-05-10T07:09:22.155Z,50.19
2023-05-10T07:12:26.019Z,49.21
2023-05-10T07:15:30.925Z,49.94
2023-05-10T07:18:35.003Z,49.21
2023-05-10T07:21:38.892Z,49.57
2023-05-10T07:24:42.806Z,49.79
2023-05-10T07:27:46.162Z,49.18
2023-05-10T07:30:51.226Z,49.78
2023-05-10T07:33:54.833Z,48.61
2023-05-10T07:37:01.531Z,49.17
2023-05-10T07:40:05.570Z,48.12
2023-05-10T07:43:09.224Z,48.76
2023-05-10T07:46:14.061Z,49.04
2023-05-10T07:49:18.086Z,47.73
2023-05-10T07:52:22.636Z,47.85
2023-05-10T07:55:27.161Z,48.34
2023-05-10T07:58:31.111Z,47.75
2023-05-10T08:01:37.047Z,48.28
2023-05-10T08:04:40.426Z,47.63
2023-05-10T08:07:44.136Z,47.73
2023-05-10T08:10:47.625Z,47.03
2023-05-10T08:13:53.769Z,46.93
2023-05-10T08:16:58.616Z,46.96
2023-05-10T08:20:02.430Z,46.59
2023-05-10T08:23:06.052Z,46.93
2023-05-10T08:26:09.705Z,46.36
2023-05-10T08:29:13.078Z,46.43
2023-05-10T08:32:18.326Z,46.05
2023-05-10T08:35:21.677Z,45.64
2023-05-10T08:38:25.813Z,45.37
2023-05-10T08:41:30.608Z,45.23
2023-05-10T08:44:37.268Z,45.16
2023-05-10T08:47:43.251Z,45.04
2023-05-10T08:50:49.732Z,44.56
2023-05-10T08:53:53.731Z,44.68
2023-05-10T08:56:58.123Z,44.02
2023-05-10T09:00:03.514Z,42.97
2023-05-10T09:03:08.569Z,42.72
2023-05-10T09:06:15.264Z,42.94
2023-05-10T09:09:20.089Z,42.76
2023-05-10T09:12:23.654Z,42.27
2023-05-10T09:15:28.060Z,42.42
2023-05-10T09:18:33.062Z,41.90
2023-05-10T09:21:39.162Z,41.85
2023-05-10T09:24:46.208Z,41.96
2023-05-10T09:27:51.262Z,41.46
2023-05-10T09:30:56.569Z,40.87
2023-05-10T09:34:01.744Z,40.95
2023-05-10T09:37:05.634Z,40.88
2023-05-10T09:40:14.705Z,40.75
2023-05-10T09:43:18.242Z,40.84
2023-05-10T09:46:21.870Z,40.23
2023-05-10T09:49:26.890Z,40.45
2023-05-10T09:52:30.585Z,39.75
2023-05-10T09:55:43.830Z,39.73
2023-05-10T09:58:47.631Z,39.42
2023-05-10T10:01:54.892Z,39.33
2023-05-10T10:05:02.963Z,38.96
2023-05-10T10:08:07.767Z,38.58
2023-05-10T10:11:11.468Z,38.45
2023-05-10T10:14:15.209Z,38.29
2023-05-10T10:17:22.021Z,38.04
2023-05-10T10:20:28.246Z,38.36
2023-05-10T10:23:32.038Z,38.55
2023-05-10T10:26:39.275Z,39.18
2023-05-10T10:30:00.744Z,37.80
2023-05-10T10:33:32.930Z,37.59
2023-05-10T10:36:47.074Z,37.75
2023-05-10T10:39:51.598Z,38.40
2023-05-10T10:42:56.150Z,37.99
2023-05-10T10:46:15.325Z,38.51
2023-05-10T10:49:19.042Z,38.64
2023-05-10T10:52:30.970Z,38.46
2023-05-10T10:55:34.719Z,38.43
2023-05-10T10:58:40.066Z,38.24
2023-05-10T11:01:45.491Z,37.90
2023-05-10T11:04:49.064Z,37.88
2023-05-10T11:07:59.820Z,38.15
2023-05-10T11:11:09.115Z,37.91
2023-05-10T11:14:13.130Z,38.05
2023-05-10T11:17:27.326Z,37.76
2023-05-10T11:20:40.958Z,36.97
2023-05-10T11:23:57.065Z,36.83
2023-05-10T11:27:01.840Z,36.74
2023-05-10T11:30:08.718Z,36.87
2023-05-10T11:33:18.012Z,37.22
2023-05-10T11:36:24.010Z,37.24
2023-05-10T11:39:31.912Z,36.88
2023-05-10T11:42:35.553Z,36.33
2023-05-10T11:45:40.055Z,35.65
2023-05-10T11:48:45.087Z,36.19
2023-05-10T11:51:48.722Z,35.61
2023-05-10T11:54:56.572Z,35.55
2023-05-10T11:58:04.691Z,34.92
2023-05-10T12:01:11.751Z,35.30
2023-05-10T12:04:15.893Z,35.68
2023-05-10T12:07:20.052Z,35.63
2023-05-10T12:10:29.305Z,35.59
2023-05-10T12:13:32.964Z,34.85
2023-05-10T12:16:37.814Z,35.14
2023-05-10T12:19:41.891Z,35.07
2023-05-10T12:22:51.943Z,34.22
2023-05-10T12:26:05.882Z,33.55
2023-05-10T12:29:18.527Z,33.93
2023-05-10T12:32:21.929Z,34.35
2023-05-10T12:35:25.872Z,34.66
2023-05-10T12:38:31.943Z,34.55
2023-05-10T12:41:37.161Z,34.44
2023-05-10T12:44:41.390Z,33.87
2023-05-10T12:47:45.164Z,33.85
2023-05-10T12:50:49.157Z,33.19
2023-05-10T12:53:52.851Z,32.12
2023-05-10T12:56:57.646Z,32.79
2023-05-10T13:00:01.467Z,30.92
2023-05-10T13:03:06.169Z,26.92
2023-05-10T13:06:09.911Z,25.07
2023-05-10T13:09:13.233Z,24.64
2023-05-10T13:12:18.387Z,24.97
2023-05-10T13:15:21.802Z,24.22
2023-05-10T13:18:27.343Z,25.79
2023-05-10T13:21:31.424Z,24.23
2023-05-10T13:24:35.137Z,20.75
2023-05-10T13:27:39.895Z,19.58
2023-05-10T13:30:43.648Z,17.97
2023-05-10T13:33:47.138Z,17.15
2023-05-10T13:36:51.212Z,16.16
2023-05-10T13:39:54.617Z,16.15
2023-05-10T13:42:59.820Z,17.87
2023-05-10T13:46:03.680Z,20.39
2023-05-10T13:49:07.568Z,21.73
2023-05-10T13:52:11.167Z,19.75
2023-05-10T13:56:10.332Z,18.10
2023-05-10T13:59:34.073Z,16.38
2023-05-10T14:02:37.829Z,15.56
2023-05-10T14:05:41.556Z,15.51
2023-05-10T14:08:44.931Z,14.95
2023-05-10T14:11:48.823Z,14.67
2023-05-10T14:14:54.297Z,14.60
2023-05-10T14:17:57.989Z,14.07
2023-05-10T14:21:01.459Z,14.67
2023-05-10T14:24:05.545Z,14.48
2023-05-10T14:27:09.005Z,13.97
2023-05-10T14:30:15.902Z,13.58
2023-05-10T14:33:20.186Z,14.06
2023-05-10T14:36:23.834Z,14.03
2023-05-10T14:39:30.465Z,13.98
2023-05-10T14:42:34.145Z,13.81
2023-05-10T14:45:39.165Z,13.65
2023-05-10T14:48:42.860Z,13.57
2023-05-10T14:51:46.894Z,13.35
2023-05-10T14:55:10.744Z,12.46
2023-05-10T14:58:14.229Z,13.92
2023-05-10T15:01:20.085Z,13.51
2023-05-10T15:04:25.067Z,14.89
2023-05-10T15:07:32.454Z,15.13
2023-05-10T15:10:36.035Z,14.29
2023-05-10T15:13:39.693Z,14.16
2023-05-10T15:16:44.516Z,13.98
2023-05-10T15:19:48.150Z,14.05
2023-05-10T15:22:51.752Z,13.44
2023-05-10T15:25:56.800Z,13.92
2023-05-10T15:29:00.348Z,13.97
2023-05-10T15:32:06.032Z,14.04
2023-05-10T15:35:11.513Z,14.12
2023-05-10T15:38:15.216Z,14.04
2023-05-10T15:41:18.702Z,14.63
2023-05-10T15:44:22.911Z,14.54
2023-05-10T15:47:28.744Z,14.80
2023-05-10T15:50:32.519Z,14.98
2023-05-10T15:53:36.094Z,14.50
2023-05-10T15:56:39.974Z,14.58
2023-05-10T15:59:43.854Z,14.99
2023-05-10T16:02:49.165Z,14.63
2023-05-10T16:05:52.682Z,15.13
2023-05-10T16:08:56.509Z,14.80
2023-05-10T16:11:59.937Z,15.21
2023-05-10T16:15:03.980Z,15.65
2023-05-10T16:18:09.069Z,15.98
2023-05-10T16:21:12.890Z,15.46
2023-05-10T16:24:16.673Z,15.85
2023-05-10T16:27:20.314Z,16.72
2023-05-10T16:30:24.437Z,16.35
2023-05-10T16:33:29.477Z,16.86
2023-05-10T16:36:33.879Z,16.90
2023-05-10T16:39:37.651Z,17.58
2023-05-10T16:42:40.994Z,17.44
2023-05-10T16:45:44.781Z,18.03
2023-05-10T16:48:49.625Z,18.10
2023-05-10T16:51:53.406Z,18.11
2023-05-10T16:54:57.382Z,18.82
2023-05-10T16:58:02.911Z,18.90
2023-05-10T17:01:07.250Z,19.56
2023-05-10T17:04:12.646Z,19.85
2023-05-10T17:07:19.016Z,20.33
2023-05-10T17:10:22.980Z,20.18
2023-05-10T17:13:26.939Z,20.64
2023-05-10T17:16:31.538Z,20.86
2023-05-10T17:19:36.952Z,21.62
2023-05-10T17:22:41.189Z,22.13
2023-05-10T17:25:45.100Z,22.56
2023-05-10T17:28:48.853Z,23.33
2023-05-10T17:31:52.709Z,23.43
2023-05-10T17:34:58.200Z,24.77
2023-05-10T17:38:01.927Z,25.72
2023-05-10T17:41:05.676Z,26.78
2023-05-10T17:44:09.453Z,27.56
2023-05-10T17:47:13.217Z,28.01
2023-05-10T17:50:18.530Z,28.96
2023-05-10T17:53:22.378Z,29.89
2023-05-10T17:56:27.156Z,29.97
2023-05-10T17:59:31.039Z,30.32
2023-05-10T18:02:35.889Z,30.37
2023-05-10T18:05:41.206Z,30.65
2023-05-10T18:08:44.672Z,31.18
2023-05-10T18:11:48.584Z,31.88
2023-05-10T18:14:52.158Z,32.57
2023-05-10T18:17:56.855Z,32.23
2023-05-10T18:21:01.838Z,32.80
2023-05-10T18:24:06.494Z,32.64
2023-05-10T18:27:10.533Z,33.56
2023-05-10T18:30:15.755Z,33.23
2023-05-10T18:33:19.504Z,33.82
2023-05-10T18:36:24.824Z,33.54
2023-05-10T18:39:28.436Z,33.98
2023-05-10T18:42:32.458Z,34.50
2023-05-10T18:45:36.182Z,34.31
2023-05-10T18:48:40.807Z,34.75
2023-05-10T18:51:45.806Z,34.99
2023-05-10T18:54:51.324Z,35.04
2023-05-10T18:57:54.836Z,35.19
2023-05-10T19:00:59.270Z,35.65
2023-05-10T19:04:03.057Z,35.71
2023-05-10T19:07:08.233Z,35.98
2023-05-10T19:10:13.785Z,35.83
2023-05-10T19:13:17.628Z,35.83
2023-05-10T19:16:23.301Z,35.91
2023-05-10T19:19:27.500Z,36.15
2023-05-10T19:22:47.127Z,36.81
2023-05-10T19:25:53.223Z,35.91
2023-05-10T19:28:57.523Z,36.08
2023-05-10T19:32:01.390Z,36.56
2023-05-10T19:35:05.727Z,36.02
2023-05-10T19:38:10.887Z,36.92
2023-05-10T19:41:14.557Z,36.82
2023-05-10T19:44:18.272Z,37.23
2023-05-10T19:47:21.887Z,37.28
2023-05-10T19:50:25.535Z,37.09
2023-05-10T19:53:31.580Z,37.47
2023-05-10T19:56:35.515Z,37.58
2023-05-10T19:59:38.904Z,37.48
2023-05-10T20:02:42.612Z,37.44
2023-05-10T20:05:46.132Z,37.51
2023-05-10T20:08:51.176Z,37.59
2023-05-10T20:11:54.642Z,37.47
2023-05-10T20:14:58.484Z,37.60
2023-05-10T20:18:03.605Z,38.43
2023-05-10T20:21:07.511Z,38.69
2023-05-10T20:24:12.400Z,38.45
2023-05-10T20:27:16.230Z,38.21
2023-05-10T20:30:20.363Z,38.66
2023-05-10T20:33:24.640Z,38.73
2023-05-10T20:36:28.783Z,38.87
2023-05-10T20:39:33.826Z,38.65
2023-05-10T20:42:37.802Z,38.89
2023-05-10T20:45:41.454Z,39.64
2023-05-10T20:48:44.986Z,39.21
2023-05-10T20:51:48.631Z,39.00
2023-05-10T20:54:53.682Z,39.30
2023-05-10T20:57:57.323Z,39.26
2023-05-10T21:01:02.532Z,39.95
2023-05-10T21:04:06.568Z,39.57
2023-05-10T21:07:09.973Z,40.04
2023-05-10T21:10:15.432Z,40.41
2023-05-10T21:13:18.943Z,40.08
2023-05-10T21:16:22.718Z,40.10
2023-05-10T21:19:26.366Z,40.70
2023-05-10T21:22:30.050Z,40.05
2023-05-10T21:25:35.054Z,39.96
2023-05-10T21:28:40.163Z,40.56
2023-05-10T21:31:43.895Z,40.03
2023-05-10T21:34:47.578Z,41.14
2023-05-10T21:37:51.071Z,41.27
2023-05-10T21:40:56.251Z,41.10
2023-05-10T21:43:59.925Z,40.93
2023-05-10T21:47:03.899Z,40.52
2023-05-10T21:50:10.006Z,41.50
2023-05-10T21:53:13.642Z,41.88
2023-05-10T21:56:18.542Z,41.74
2023-05-10T21:59:22.483Z,41.38
2023-05-10T22:02:26.163Z,41.36
2023-05-10T22:05:30.067Z,41.55
2023-05-10T22:08:33.596Z,42.18
2023-05-10T22:11:38.678Z,41.47
2023-05-10T22:14:42.243Z,41.91
2023-05-10T22:17:45.986Z,42.10
2023-05-10T22:20:49.456Z,41.59
2023-05-10T22:23:53.135Z,42.61
2023-05-10T22:26:58.171Z,42.46
2023-05-10T22:30:01.906Z,41.94
2023-05-10T22:33:05.685Z,42.12
2023-05-10T22:36:09.830Z,42.69
2023-05-10T22:39:13.180Z,42.96
2023-05-10T22:42:18.349Z,42.50
2023-05-10T22:45:21.892Z,42.84
2023-05-10T22:48:25.557Z,43.13
2023-05-10T22:51:29.344Z,42.97
2023-05-10T22:54:34.913Z,42.72
2023-05-10T22:57:41.244Z,43.10
2023-05-10T23:00:45.036Z,43.52
2023-05-10T23:03:48.818Z,43.38
2023-05-10T23:06:53.590Z,43.20
2023-05-10T23:09:57.161Z,43.57
2023-05-10T23:13:02.241Z,43.49
2023-05-10T23:16:09.325Z,43.98
2023-05-10T23:19:13.177Z,44.19
2023-05-10T23:22:16.588Z,44.39
2023-05-10T23:25:20.462Z,44.39
2023-05-10T23:28:25.334Z,44.67
2023-05-10T23:31:29.404Z,44.04
2023-05-10T23:34:33.068Z,44.50
2023-05-10T23:37:37.224Z,44.42
2023-05-10T23:40:40.775Z,44.63
2023-05-10T23:43:46.204Z,45.32
2023-05-10T23:46:49.742Z,44.65
2023-05-10T23:49:53.714Z,44.95
2023-05-10T23:52:57.278Z,45.47
2023-05-10T23:56:00.926Z,45.53
2023-05-10T23:59:06.033Z,45.55
